Time;durP1;ratioP1;P1;durP2;ratioP2;P2;SDS_P1;SDS_P2;PMS_P1;PMS_P2;Temp;Humidity;BMP_temperature;BMP_pressure;BME280_temperature;BME280_humidity;BME280_pressure;Samples;Min_cycle;Max_cycle;Signal;HPM_P1;HPM_P2
2021/01/15 00:02:22;;;;;;;42.83;27.58;;;1.40;93.60;;;;;;5081558;28;20217;-70
2021/01/15 00:04:48;;;;;;;45.53;29.58;;;1.00;93.50;;;;;;5080492;28;20202;-70
2021/01/15 00:07:15;;;;;;;46.42;27.90;;;0.90;93.70;;;;;;5081610;28;20213;-69
2021/01/15 00:09:45;;;;;;;50.13;28.50;;;0.80;93.70;;;;;;5081102;28;20202;-70
2021/01/15 00:12:13;;;;;;;49.25;28.08;;;0.80;93.90;;;;;;5081555;28;20244;-69
2021/01/15 00:14:40;;;;;;;46.03;28.83;;;0.90;93.90;;;;;;5061112;28;20234;-69
2021/01/15 00:17:06;;;;;;;45.92;27.45;;;0.80;93.80;;;;;;5080493;28;20203;-70
2021/01/15 00:19:33;;;;;;;51.13;27.27;;;0.80;93.90;;;;;;5080996;28;20209;-68
2021/01/15 00:21:59;;;;;;;48.90;29.83;;;1.00;93.80;;;;;;5080512;28;20206;-69
2021/01/15 00:24:26;;;;;;;46.10;28.95;;;1.30;93.80;;;;;;5080460;28;20547;-68
2021/01/15 00:26:53;;;;;;;47.53;27.15;;;1.00;93.60;;;;;;5079503;28;20199;-69
2021/01/15 00:29:19;;;;;;;44.97;27.10;;;1.00;93.70;;;;;;5080230;28;20202;-70
2021/01/15 00:31:46;;;;;;;45.90;29.25;;;1.00;93.60;;;;;;5080230;28;21576;-70
2021/01/15 00:34:15;;;;;;;40.83;28.60;;;1.00;93.90;;;;;;5080616;28;20264;-70
2021/01/15 00:36:44;;;;;;;42.67;27.58;;;1.10;93.70;;;;;;5080479;28;20218;-70
2021/01/15 00:39:15;;;;;;;46.90;26.85;;;0.80;93.80;;;;;;5080549;28;20198;-69
2021/01/15 00:41:45;;;;;;;48.47;28.55;;;0.80;94.10;;;;;;5079873;28;20199;-69
2021/01/15 00:44:13;;;;;;;49.38;28.38;;;0.80;94.10;;;;;;5080438;28;20500;-70
2021/01/15 00:46:46;;;;;;;50.83;30.02;;;0.70;94.30;;;;;;5080505;28;20627;-70
2021/01/15 00:49:15;;;;;;;53.88;29.95;;;0.80;94.70;;;;;;5080521;28;20396;-70
2021/01/15 00:51:50;;;;;;;42.42;26.13;;;1.00;94.10;;;;;;5080285;28;20265;-69
2021/01/15 00:54:17;;;;;;;40.72;25.08;;;0.80;94.00;;;;;;5080321;28;20234;-68
2021/01/15 00:56:44;;;;;;;43.83;29.20;;;0.80;94.10;;;;;;5079921;28;20218;-69
2021/01/15 00:59:10;;;;;;;37.35;25.13;;;0.80;94.20;;;;;;5080365;28;20210;-69
2021/01/15 01:01:39;;;;;;;52.80;28.67;;;0.70;94.20;;;;;;5079752;28;20206;-69
2021/01/15 01:04:06;;;;;;;40.80;25.45;;;0.60;94.30;;;;;;5080033;28;20249;-69
2021/01/15 01:06:33;;;;;;;55.08;29.42;;;0.80;94.50;;;;;;5080008;28;20211;-69
2021/01/15 01:09:02;;;;;;;43.90;26.40;;;0.60;94.40;;;;;;5080188;28;20244;-69
2021/01/15 01:11:30;;;;;;;38.85;26.15;;;0.70;94.40;;;;;;5080242;28;20278;-69
2021/01/15 01:13:58;;;;;;;44.40;27.85;;;0.60;94.30;;;;;;5079514;28;20230;-69
2021/01/15 01:16:26;;;;;;;48.67;28.05;;;0.70;94.50;;;;;;5067798;28;20510;-70
2021/01/15 01:18:54;;;;;;;53.08;27.63;;;0.90;94.30;;;;;;5079835;28;20301;-69
2021/01/15 01:21:21;;;;;;;49.30;26.80;;;0.70;94.20;;;;;;5079661;28;20305;-69
2021/01/15 01:23:48;;;;;;;44.03;26.48;;;0.60;94.30;;;;;;5079581;28;20528;-69
2021/01/15 01:26:15;;;;;;;53.70;28.90;;;0.70;94.50;;;;;;5079862;28;20203;-70
2021/01/15 01:28:42;;;;;;;45.40;26.60;;;0.60;94.40;;;;;;5112551;28;20210;-69
2021/01/15 01:31:10;;;;;;;53.50;29.05;;;0.60;94.60;;;;;;5071315;28;20199;-70
2021/01/15 01:33:37;;;;;;;57.95;31.25;;;0.60;94.50;;;;;;5078214;28;20246;-70
2021/01/15 01:36:06;;;;;;;49.00;28.10;;;0.50;94.50;;;;;;5079581;28;20261;-71
2021/01/15 01:38:32;;;;;;;52.67;28.05;;;0.50;94.60;;;;;;5079658;28;20519;-70
2021/01/15 01:40:59;;;;;;;56.72;31.42;;;0.50;94.80;;;;;;5079095;28;20210;-71
2021/01/15 01:43:26;;;;;;;49.47;30.45;;;0.60;94.80;;;;;;5079376;28;20485;-70
2021/01/15 01:45:54;;;;;;;47.08;27.10;;;0.70;94.50;;;;;;5077706;28;20516;-70
2021/01/15 01:48:22;;;;;;;49.97;29.83;;;0.80;94.50;;;;;;5079565;28;20615;-71
2021/01/15 01:50:52;;;;;;;48.83;28.60;;;0.80;94.30;;;;;;5078866;28;20485;-71
2021/01/15 01:53:22;;;;;;;53.38;32.08;;;0.80;94.30;;;;;;5078729;28;20535;-70
2021/01/15 01:55:50;;;;;;;40.83;25.38;;;0.90;94.20;;;;;;5079169;28;20205;-71
2021/01/15 01:58:17;;;;;;;53.55;28.50;;;0.90;94.00;;;;;;5079300;28;20210;-71
2021/01/15 02:00:46;;;;;;;43.28;27.10;;;0.90;94.00;;;;;;5079441;28;20214;-71
2021/01/15 02:03:17;;;;;;;49.85;28.10;;;1.00;93.80;;;;;;5079179;28;20226;-72
2021/01/15 02:05:44;;;;;;;51.47;27.83;;;1.20;93.70;;;;;;5078517;28;20206;-69
2021/01/15 02:08:11;;;;;;;44.70;25.80;;;1.20;93.50;;;;;;5080561;28;20206;-70
2021/01/15 02:11:06;;;;;;;45.10;27.48;;;1.50;93.60;;;;;;5082778;28;20207;-71
2021/01/15 02:13:46;;;;;;;51.33;27.98;;;1.00;93.60;;;;;;5079963;28;20254;-70
2021/01/15 02:16:21;;;;;;;59.30;30.38;;;2.60;94.30;;;;;;5081001;28;20528;-69
2021/01/15 02:18:54;;;;;;;44.83;29.33;;;1.00;93.80;;;;;;5078435;28;20240;-70
2021/01/15 02:21:51;;;;;;;45.00;29.27;;;1.00;93.90;;;;;;5078810;28;20207;-70
2021/01/15 02:24:36;;;;;;;38.47;24.70;;;0.90;94.10;;;;;;5079170;28;20199;-70
2021/01/15 02:27:42;;;;;;;45.60;27.90;;;1.00;94.00;;;;;;5079044;28;20210;-69
2021/01/15 02:30:28;;;;;;;46.00;28.48;;;0.90;94.10;;;;;;5078545;28;20217;-71
2021/01/15 02:33:18;;;;;;;46.10;27.10;;;0.90;94.20;;;;;;5077878;28;20242;-71
2021/01/15 02:36:22;;;;;;;48.10;27.55;;;0.80;94.60;;;;;;5078326;28;20203;-72
2021/01/15 02:38:59;;;;;;;39.13;24.17;;;0.80;94.70;;;;;;5078769;28;20214;-69
2021/01/15 02:41:28;;;;;;;42.53;27.67;;;0.80;94.60;;;;;;5078928;28;20211;-71
2021/01/15 02:44:00;;;;;;;43.30;25.63;;;0.80;94.60;;;;;;5078546;28;20211;-70
2021/01/15 02:46:32;;;;;;;49.53;27.60;;;0.80;94.70;;;;;;5077822;28;20234;-71
2021/01/15 02:49:01;;;;;;;45.75;24.98;;;0.80;94.80;;;;;;5077538;28;20211;-70
2021/01/15 02:51:32;;;;;;;42.22;27.02;;;0.80;94.70;;;;;;5078336;28;20207;-70
2021/01/15 02:53:59;;;;;;;42.05;25.15;;;0.70;94.80;;;;;;5079278;28;20234;-70
2021/01/15 02:56:26;;;;;;;41.95;26.23;;;0.70;94.90;;;;;;5079663;28;20206;-70
2021/01/15 02:58:52;;;;;;;36.97;21.02;;;0.60;95.10;;;;;;5079257;28;20208;-70
2021/01/15 03:01:21;;;;;;;47.17;24.10;;;0.70;95.10;;;;;;5077362;28;20215;-70
2021/01/15 03:03:56;;;;;;;41.10;25.25;;;0.60;95.10;;;;;;5077961;28;20210;-70
2021/01/15 03:06:50;;;;;;;43.53;27.20;;;0.80;95.20;;;;;;5082030;28;20508;-70
2021/01/15 03:09:18;;;;;;;37.78;23.63;;;0.60;95.20;;;;;;5082651;28;20260;-70
2021/01/15 03:11:46;;;;;;;43.65;27.75;;;0.60;95.20;;;;;;5082029;28;20207;-70
2021/01/15 03:14:16;;;;;;;39.05;23.88;;;0.70;95.20;;;;;;5082058;28;20412;-70
2021/01/15 03:16:45;;;;;;;32.85;21.77;;;0.70;95.00;;;;;;5082028;28;20550;-71
2021/01/15 03:19:12;;;;;;;43.55;23.70;;;0.70;95.00;;;;;;5082510;28;20264;-71
2021/01/15 03:21:40;;;;;;;44.33;25.58;;;0.80;95.00;;;;;;5081897;28;20211;-71
2021/01/15 03:24:07;;;;;;;38.15;25.27;;;0.80;95.00;;;;;;5110077;28;20269;-71
2021/01/15 03:26:34;;;;;;;40.63;23.30;;;0.70;95.10;;;;;;5076209;28;20513;-71
2021/01/15 03:29:01;;;;;;;40.67;24.85;;;0.80;95.10;;;;;;5082056;28;20210;-71
2021/01/15 03:31:28;;;;;;;40.92;24.98;;;0.90;95.00;;;;;;5080850;28;20431;-71
2021/01/15 03:33:58;;;;;;;47.92;25.52;;;1.20;95.00;;;;;;5081594;28;20226;-71
2021/01/15 03:36:25;;;;;;;39.22;22.38;;;0.80;95.00;;;;;;5081533;28;20199;-71
2021/01/15 03:38:52;;;;;;;36.25;22.70;;;0.90;95.00;;;;;;5080749;28;20496;-71
2021/01/15 03:41:18;;;;;;;32.90;21.67;;;1.20;95.30;;;;;;5080421;28;20207;-71
2021/01/15 03:43:45;;;;;;;43.08;24.65;;;0.80;94.90;;;;;;5081307;28;20211;-72
2021/01/15 03:46:16;;;;;;;34.70;23.67;;;0.80;95.10;;;;;;5081290;28;20374;-71
2021/01/15 03:48:43;;;;;;;31.65;21.17;;;0.70;95.00;;;;;;5081945;28;20218;-71
2021/01/15 03:51:10;;;;;;;34.35;22.30;;;0.80;94.90;;;;;;5081769;28;20198;-70
2021/01/15 03:53:36;;;;;;;41.28;23.00;;;1.00;95.20;;;;;;5081333;28;20280;-70
2021/01/15 03:56:03;;;;;;;34.13;21.23;;;0.70;95.00;;;;;;5081345;28;20259;-69
2021/01/15 03:58:30;;;;;;;39.08;22.23;;;0.70;95.00;;;;;;5081225;28;20615;-69
2021/01/15 04:00:57;;;;;;;37.13;23.15;;;0.70;95.00;;;;;;5080329;28;20214;-70
2021/01/15 04:03:24;;;;;;;31.83;20.02;;;0.80;95.00;;;;;;5080297;28;20240;-69
2021/01/15 04:05:50;;;;;;;37.40;22.55;;;0.90;94.60;;;;;;5081940;28;20211;-71
2021/01/15 04:08:17;;;;;;;27.90;18.95;;;0.70;94.60;;;;;;5083427;28;20224;-71
2021/01/15 04:10:43;;;;;;;34.55;21.05;;;0.50;94.90;;;;;;5066863;28;20218;-72
2021/01/15 04:13:10;;;;;;;31.58;20.98;;;0.60;95.00;;;;;;5081631;28;20230;-70
2021/01/15 04:15:36;;;;;;;30.60;21.00;;;0.60;95.10;;;;;;5080237;28;20207;-71
2021/01/15 04:18:03;;;;;;;33.70;19.50;;;0.60;94.80;;;;;;5081445;28;20215;-71
2021/01/15 04:20:30;;;;;;;33.75;21.30;;;0.60;94.80;;;;;;5080776;28;20374;-71
2021/01/15 04:22:56;;;;;;;44.78;26.63;;;0.70;94.60;;;;;;5080887;28;20224;-70
2021/01/15 04:25:23;;;;;;;38.75;24.42;;;0.60;94.70;;;;;;5081413;28;20331;-71
2021/01/15 04:27:50;;;;;;;38.65;24.48;;;0.60;94.80;;;;;;5080421;28;20210;-71
2021/01/15 04:30:17;;;;;;;34.38;21.15;;;0.60;94.60;;;;;;5080768;28;20380;-71
2021/01/15 04:32:45;;;;;;;30.25;20.80;;;0.60;94.80;;;;;;5080523;28;20292;-71
2021/01/15 04:35:14;;;;;;;39.28;22.50;;;0.60;94.90;;;;;;5080575;28;20238;-71
2021/01/15 04:37:41;;;;;;;34.95;21.50;;;0.50;94.70;;;;;;5079946;28;20397;-70
2021/01/15 04:40:09;;;;;;;28.25;17.48;;;0.50;94.60;;;;;;5081053;28;20237;-71
2021/01/15 04:42:39;;;;;;;32.88;23.08;;;0.40;94.70;;;;;;5080135;28;20265;-71
2021/01/15 04:45:08;;;;;;;33.83;20.35;;;0.40;94.90;;;;;;5080519;28;20222;-71
2021/01/15 04:47:37;;;;;;;27.88;20.05;;;0.30;95.00;;;;;;5059482;28;20524;-71
2021/01/15 04:50:05;;;;;;;29.02;19.70;;;0.40;94.90;;;;;;5080219;28;20491;-70
2021/01/15 04:52:40;;;;;;;35.10;20.83;;;0.20;94.30;;;;;;5080373;28;20195;-73
2021/01/15 04:55:12;;;;;;;32.20;20.00;;;0.20;94.60;;;;;;5080361;28;20279;-71
2021/01/15 04:57:39;;;;;;;31.92;18.17;;;0.20;94.80;;;;;;5080293;28;20222;-73
2021/01/15 05:00:08;;;;;;;34.80;23.30;;;0.20;94.80;;;;;;5081355;28;20195;-71
2021/01/15 05:02:35;;;;;;;37.47;23.23;;;0.10;94.80;;;;;;5082481;28;20324;-70
2021/01/15 05:05:07;;;;;;;28.85;18.42;;;1.30;95.40;;;;;;5080338;28;20207;-71
2021/01/15 05:07:36;;;;;;;39.72;22.08;;;-0.10;95.10;;;;;;5079675;28;20309;-71
2021/01/15 05:10:10;;;;;;;38.22;21.50;;;0.20;95.40;;;;;;5080442;28;20226;-71
2021/01/15 05:12:43;;;;;;;35.10;21.95;;;-0.10;95.60;;;;;;5079085;28;20213;-70
2021/01/15 05:15:11;;;;;;;35.47;21.15;;;-0.10;95.50;;;;;;5079746;28;20397;-71
2021/01/15 05:17:41;;;;;;;38.63;23.88;;;0.00;95.70;;;;;;5079840;28;20400;-71
2021/01/15 05:20:09;;;;;;;35.75;22.20;;;0.20;95.60;;;;;;5076833;28;20218;-72
2021/01/15 05:22:35;;;;;;;32.03;20.70;;;0.20;95.40;;;;;;5079757;28;20227;-70
2021/01/15 05:25:02;;;;;;;37.03;21.40;;;0.20;95.30;;;;;;5078894;28;20500;-70
2021/01/15 05:27:38;;;;;;;39.50;22.23;;;0.20;95.20;;;;;;5078845;28;20516;-70
2021/01/15 05:30:24;;;;;;;36.00;20.83;;;0.20;95.20;;;;;;5079322;28;20210;-70
2021/01/15 05:32:56;;;;;;;35.30;21.27;;;0.30;95.20;;;;;;5078911;28;20256;-72
2021/01/15 05:35:42;;;;;;;33.10;20.17;;;1.20;95.30;;;;;;5075526;28;20509;-71
2021/01/15 05:38:12;;;;;;;38.00;21.75;;;0.60;94.70;;;;;;5079665;28;20524;-72
2021/01/15 05:40:47;;;;;;;32.38;21.40;;;0.50;94.50;;;;;;5079496;28;20238;-72
2021/01/15 05:43:27;;;;;;;35.47;21.20;;;0.40;94.50;;;;;;5079697;28;20228;-72
2021/01/15 05:46:03;;;;;;;30.35;19.05;;;0.30;94.80;;;;;;5063952;28;20207;-71
2021/01/15 05:48:30;;;;;;;32.45;20.27;;;0.40;94.80;;;;;;5079753;28;20213;-71
2021/01/15 05:50:56;;;;;;;27.73;17.85;;;1.30;94.90;;;;;;5078378;28;20509;-71
2021/01/15 05:53:23;;;;;;;28.73;18.33;;;0.70;94.90;;;;;;5079198;28;20241;-71
2021/01/15 05:55:58;;;;;;;31.23;18.48;;;0.30;94.40;;;;;;5078834;28;20245;-71
2021/01/15 05:58:25;;;;;;;31.40;19.85;;;0.20;94.50;;;;;;5079040;28;20199;-70
2021/01/15 06:00:52;;;;;;;36.78;21.38;;;0.10;94.60;;;;;;5078297;28;20214;-71
2021/01/15 06:03:22;;;;;;;36.60;22.23;;;0.40;94.70;;;;;;5079359;28;20447;-71
2021/01/15 06:05:50;;;;;;;29.85;19.67;;;0.20;94.60;;;;;;5080150;28;20202;-70
2021/01/15 06:08:16;;;;;;;32.05;19.65;;;0.20;94.60;;;;;;5080959;28;20435;-72
2021/01/15 06:10:48;;;;;;;34.00;20.73;;;0.20;94.50;;;;;;5081346;28;20211;-72
2021/01/15 06:13:37;;;;;;;31.50;19.92;;;0.30;94.50;;;;;;5078856;28;20428;-72
2021/01/15 06:16:05;;;;;;;31.85;19.85;;;0.30;94.00;;;;;;5078622;28;20274;-70
2021/01/15 06:18:32;;;;;;;51.28;20.83;;;0.20;94.10;;;;;;5078499;28;20275;-71
2021/01/15 06:21:09;;;;;;;37.45;21.88;;;0.30;94.10;;;;;;5078507;28;20207;-71
2021/01/15 06:23:40;;;;;;;35.65;19.92;;;0.60;93.60;;;;;;5078917;28;20272;-70
2021/01/15 06:26:10;;;;;;;33.83;20.33;;;1.30;93.70;;;;;;5080298;28;20320;-70
2021/01/15 06:28:38;;;;;;;33.03;20.33;;;0.60;93.20;;;;;;5075641;28;20199;-70
2021/01/15 06:31:08;;;;;;;33.30;21.92;;;0.10;93.90;;;;;;5078150;28;20210;-72
2021/01/15 06:33:36;;;;;;;36.22;21.73;;;-0.10;94.80;;;;;;5078339;28;20246;-72
2021/01/15 06:36:04;;;;;;;30.15;20.00;;;0.00;94.90;;;;;;5078500;28;20253;-70
2021/01/15 06:38:36;;;;;;;33.75;20.70;;;0.10;94.90;;;;;;5079522;28;20226;-72
2021/01/15 06:41:17;;;;;;;33.85;20.58;;;0.00;94.60;;;;;;5082916;28;20282;-70
2021/01/15 06:43:45;;;;;;;38.38;23.67;;;0.10;94.70;;;;;;5082059;28;20203;-70
2021/01/15 06:46:22;;;;;;;31.27;20.35;;;0.10;94.70;;;;;;5082921;28;20195;-72
2021/01/15 06:49:04;;;;;;;38.47;22.25;;;0.80;95.00;;;;;;5081879;28;20210;-72
2021/01/15 06:51:35;;;;;;;40.88;23.10;;;0.00;94.70;;;;;;5082723;28;20279;-72
2021/01/15 06:54:08;;;;;;;34.70;22.40;;;0.00;94.80;;;;;;5079877;28;20276;-70
2021/01/15 06:56:38;;;;;;;43.53;25.13;;;-0.10;95.00;;;;;;5052354;28;20207;-70
2021/01/15 06:59:19;;;;;;;40.58;24.05;;;0.60;95.40;;;;;;5077033;28;20199;-70
2021/01/15 07:02:09;;;;;;;40.53;23.63;;;0.10;95.00;;;;;;5082167;28;20199;-70
2021/01/15 07:05:00;;;;;;;38.08;25.38;;;0.10;94.60;;;;;;5072239;28;20257;-72
2021/01/15 07:07:29;;;;;;;42.83;24.98;;;0.50;94.50;;;;;;5081801;28;20229;-70
2021/01/15 07:09:56;;;;;;;34.65;23.52;;;0.70;94.00;;;;;;5076979;28;20212;-72
2021/01/15 07:12:23;;;;;;;39.75;25.25;;;1.30;93.70;;;;;;5082261;28;20208;-69
2021/01/15 07:14:57;;;;;;;35.50;23.42;;;0.50;93.60;;;;;;5081603;28;20223;-71
2021/01/15 07:17:27;;;;;;;34.97;21.75;;;0.70;93.80;;;;;;5082289;28;20206;-70
2021/01/15 07:20:17;;;;;;;37.13;21.98;;;0.70;93.50;;;;;;5081078;28;20688;-72
2021/01/15 07:22:46;;;;;;;29.38;18.33;;;0.90;93.20;;;;;;5080738;28;20237;-73
2021/01/15 07:25:13;;;;;;;36.03;23.52;;;0.90;92.10;;;;;;5081852;28;20249;-70
2021/01/15 07:27:41;;;;;;;30.45;20.73;;;0.80;92.00;;;;;;5081638;28;20207;-74
2021/01/15 07:30:13;;;;;;;33.25;19.88;;;0.60;92.10;;;;;;5076270;28;20195;-73
2021/01/15 07:32:40;;;;;;;30.90;21.95;;;0.90;92.30;;;;;;5081859;28;20238;-73
2021/01/15 07:35:14;;;;;;;27.55;19.17;;;1.30;91.80;;;;;;5081255;28;20456;-73
2021/01/15 07:37:42;;;;;;;32.35;17.05;;;1.00;91.30;;;;;;5080542;28;20270;-73
2021/01/15 07:40:19;;;;;;;24.90;18.00;;;0.70;91.60;;;;;;5070917;28;20213;-72
2021/01/15 07:42:59;;;;;;;38.22;20.33;;;0.50;91.40;;;;;;5081240;28;20207;-72
2021/01/15 07:45:26;;;;;;;39.33;21.40;;;0.50;91.80;;;;;;5080739;28;20240;-73
2021/01/15 07:47:54;;;;;;;31.83;18.88;;;0.50;92.10;;;;;;5081191;28;20214;-72
2021/01/15 07:50:44;;;;;;;28.80;17.48;;;0.60;91.60;;;;;;5080819;28;20375;-73
2021/01/15 07:53:17;;;;;;;35.30;19.20;;;1.10;91.30;;;;;;5081260;28;20355;-73
2021/01/15 07:55:47;;;;;;;23.15;16.15;;;0.70;91.20;;;;;;5081778;28;20320;-73
2021/01/15 07:58:18;;;;;;;32.20;20.45;;;0.70;90.90;;;;;;5080712;28;20203;-74
2021/01/15 08:00:46;;;;;;;30.98;17.70;;;1.30;91.00;;;;;;5080812;28;20217;-73
2021/01/15 08:03:13;;;;;;;31.42;19.67;;;0.40;91.70;;;;;;5082554;28;20234;-73
2021/01/15 08:05:43;;;;;;;27.13;19.13;;;0.70;91.60;;;;;;5081609;28;20207;-74
2021/01/15 08:08:17;;;;;;;31.50;21.52;;;1.50;91.10;;;;;;5080685;28;20472;-74
2021/01/15 08:10:49;;;;;;;29.30;18.98;;;1.20;90.80;;;;;;5080902;28;20217;-72
2021/01/15 08:13:24;;;;;;;33.23;21.63;;;1.50;90.80;;;;;;5080561;28;20209;-75
2021/01/15 08:15:51;;;;;;;33.17;21.60;;;1.60;90.10;;;;;;5081248;28;20384;-73
2021/01/15 08:18:19;;;;;;;38.90;23.85;;;1.90;89.50;;;;;;5080641;28;20206;-73
2021/01/15 08:20:50;;;;;;;46.90;27.05;;;2.00;88.80;;;;;;5080301;28;20218;-73
2021/01/15 08:23:21;;;;;;;37.03;23.90;;;2.10;88.40;;;;;;5077711;28;20317;-72
2021/01/15 08:25:50;;;;;;;37.45;24.10;;;2.30;89.00;;;;;;5081070;28;20207;-72
2021/01/15 08:28:17;;;;;;;32.45;21.27;;;2.10;89.30;;;;;;5080497;28;20225;-73
2021/01/15 08:31:07;;;;;;;33.78;23.77;;;2.20;89.20;;;;;;5080926;28;20448;-72
2021/01/15 08:33:35;;;;;;;31.70;20.90;;;2.20;88.80;;;;;;5079800;28;20246;-71
2021/01/15 08:36:03;;;;;;;37.45;23.08;;;2.20;88.70;;;;;;5080737;28;20234;-72
2021/01/15 08:38:38;;;;;;;30.70;20.23;;;2.30;88.70;;;;;;5080021;28;20202;-73
2021/01/15 08:41:23;;;;;;;31.55;21.25;;;2.30;88.70;;;;;;5096330;28;20198;-72
2021/01/15 08:43:52;;;;;;;35.33;20.33;;;2.30;88.30;;;;;;5079725;28;20210;-72
2021/01/15 08:46:20;;;;;;;35.33;21.38;;;2.30;88.60;;;;;;5080409;28;20203;-72
2021/01/15 08:48:48;;;;;;;34.42;23.08;;;2.50;88.70;;;;;;5079503;28;20276;-72
2021/01/15 08:51:21;;;;;;;36.67;24.20;;;2.60;88.50;;;;;;5080343;28;20249;-70
2021/01/15 08:54:05;;;;;;;34.13;22.80;;;2.60;88.10;;;;;;5080118;28;20294;-70
2021/01/15 08:56:46;;;;;;;42.70;25.33;;;2.70;88.20;;;;;;5077895;28;20270;-70
2021/01/15 08:59:27;;;;;;;56.38;30.80;;;2.70;87.90;;;;;;5076865;28;20523;-71
2021/01/15 09:01:58;;;;;;;61.85;32.33;;;2.50;87.80;;;;;;5076012;28;20443;-70
2021/01/15 09:04:28;;;;;;;48.45;27.00;;;2.60;88.50;;;;;;5080847;28;20218;-70
2021/01/15 09:07:04;;;;;;;41.72;26.50;;;2.40;89.00;;;;;;5085474;28;20238;-70
2021/01/15 09:09:32;;;;;;;45.10;27.90;;;2.30;90.10;;;;;;5076433;28;20248;-70
2021/01/15 09:12:11;;;;;;;32.85;21.58;;;2.40;90.10;;;;;;5079878;28;20289;-71
2021/01/15 09:14:41;;;;;;;36.95;22.58;;;2.60;89.40;;;;;;5079304;28;20556;-71
2021/01/15 09:17:09;;;;;;;31.27;21.35;;;2.60;88.60;;;;;;5079249;28;20222;-71
2021/01/15 09:19:36;;;;;;;35.53;22.00;;;2.60;88.80;;;;;;5079267;28;20517;-71
2021/01/15 09:22:09;;;;;;;33.63;22.65;;;2.60;88.60;;;;;;5076294;28;20254;-70
2021/01/15 09:24:36;;;;;;;43.40;26.20;;;2.50;88.60;;;;;;5078377;28;20211;-70
2021/01/15 09:27:10;;;;;;;45.20;25.63;;;2.40;88.90;;;;;;5080154;28;20425;-71
2021/01/15 09:29:40;;;;;;;43.30;24.67;;;2.40;89.10;;;;;;5078485;28;20370;-72
2021/01/15 09:32:09;;;;;;;41.50;24.05;;;2.40;89.10;;;;;;5078721;28;20299;-72
2021/01/15 09:34:36;;;;;;;45.97;27.13;;;2.30;89.80;;;;;;5078435;28;20218;-71
2021/01/15 09:37:03;;;;;;;41.85;25.25;;;2.10;89.90;;;;;;5079401;28;20475;-71
2021/01/15 09:39:29;;;;;;;41.60;26.88;;;2.10;90.10;;;;;;5078706;28;20214;-70
2021/01/15 09:41:58;;;;;;;43.80;27.92;;;2.00;90.30;;;;;;5078999;28;20437;-72
2021/01/15 09:44:28;;;;;;;46.63;26.30;;;1.90;90.60;;;;;;5078780;28;20214;-70
2021/01/15 09:47:00;;;;;;;45.60;28.60;;;1.90;90.30;;;;;;5078989;28;20207;-72
2021/01/15 09:49:28;;;;;;;41.60;26.77;;;1.90;90.40;;;;;;5078320;28;20207;-72
2021/01/15 09:51:54;;;;;;;45.88;29.42;;;1.90;90.40;;;;;;5078695;28;20577;-72
2021/01/15 09:54:21;;;;;;;45.67;28.17;;;1.80;90.10;;;;;;5078519;28;20222;-72
2021/01/15 09:56:48;;;;;;;53.75;29.77;;;1.80;90.50;;;;;;5078505;28;20206;-71
2021/01/15 09:59:16;;;;;;;47.08;28.98;;;1.50;90.90;;;;;;5077985;28;20211;-72
2021/01/15 10:01:45;;;;;;;49.40;30.00;;;1.30;91.10;;;;;;5080660;28;20233;-71
2021/01/15 10:04:12;;;;;;;45.30;28.27;;;1.90;91.50;;;;;;5076645;28;20210;-71
2021/01/15 10:06:40;;;;;;;54.80;33.60;;;1.10;91.50;;;;;;5078299;28;20532;-71
2021/01/15 10:09:08;;;;;;;58.40;31.02;;;1.00;91.60;;;;;;5075442;28;20485;-72
2021/01/15 10:11:36;;;;;;;54.33;30.88;;;1.00;91.90;;;;;;5075373;28;20398;-71
2021/01/15 10:14:09;;;;;;;50.38;34.17;;;1.10;91.80;;;;;;5078818;28;20479;-71
2021/01/15 10:16:41;;;;;;;48.75;30.77;;;1.10;91.80;;;;;;5075631;28;20245;-72
2021/01/15 10:19:08;;;;;;;51.42;31.77;;;1.30;91.50;;;;;;5074756;28;20237;-73
2021/01/15 10:21:38;;;;;;;58.25;33.15;;;1.10;91.70;;;;;;5090901;28;20210;-71
2021/01/15 10:24:07;;;;;;;50.05;30.63;;;1.60;91.70;;;;;;5078668;28;20289;-71
2021/01/15 10:26:35;;;;;;;51.50;33.80;;;0.90;91.50;;;;;;5078517;28;20237;-70
2021/01/15 10:29:09;;;;;;;56.00;33.13;;;1.30;92.40;;;;;;5078341;28;20513;-71
2021/01/15 10:31:42;;;;;;;55.13;31.73;;;0.60;92.40;;;;;;5076860;28;20512;-71
2021/01/15 10:34:10;;;;;;;55.17;32.70;;;0.50;92.70;;;;;;5073635;28;20222;-71
2021/01/15 10:36:42;;;;;;;48.90;29.25;;;0.60;92.80;;;;;;5076797;28;20492;-70
2021/01/15 10:39:13;;;;;;;52.63;31.10;;;0.90;92.60;;;;;;5078596;28;20217;-70
2021/01/15 10:41:45;;;;;;;53.85;30.73;;;1.10;92.20;;;;;;5077577;28;20262;-70
2021/01/15 10:44:14;;;;;;;47.50;30.90;;;0.90;92.00;;;;;;5076981;28;20314;-71
2021/01/15 10:46:46;;;;;;;50.15;29.38;;;0.90;92.40;;;;;;5077558;28;20493;-70
2021/01/15 10:49:14;;;;;;;47.05;28.80;;;0.70;92.50;;;;;;5076465;28;20480;-71
2021/01/15 10:51:46;;;;;;;45.50;29.13;;;0.80;92.50;;;;;;5086470;28;20199;-71
2021/01/15 10:54:13;;;;;;;41.15;28.10;;;0.60;92.10;;;;;;5084242;28;20218;-71
2021/01/15 10:56:46;;;;;;;50.70;30.27;;;0.50;92.40;;;;;;5077785;28;20211;-71
2021/01/15 10:59:14;;;;;;;54.58;32.42;;;0.60;92.80;;;;;;5078177;28;20207;-72
2021/01/15 11:01:42;;;;;;;59.22;35.78;;;0.70;92.80;;;;;;5077946;28;20485;-69
2021/01/15 11:04:12;;;;;;;57.17;33.70;;;0.90;92.40;;;;;;5078088;28;20524;-71
2021/01/15 11:06:42;;;;;;;78.43;36.90;;;0.80;91.90;;;;;;5077628;28;20464;-70
2021/01/15 11:09:13;;;;;;;45.88;29.38;;;0.70;91.70;;;;;;5074913;28;20218;-70
2021/01/15 11:11:56;;;;;;;42.00;24.33;;;0.70;92.20;;;;;;5077265;28;20207;-71
2021/01/15 11:14:23;;;;;;;42.60;27.25;;;0.60;92.20;;;;;;5075484;28;20288;-72
2021/01/15 11:16:50;;;;;;;44.65;27.60;;;1.80;93.00;;;;;;5076598;28;20209;-71
2021/01/15 11:19:17;;;;;;;41.25;25.23;;;0.30;92.80;;;;;;5075290;28;20199;-71
2021/01/15 11:21:44;;;;;;;43.28;26.42;;;0.60;92.40;;;;;;5077817;28;20214;-69
2021/01/15 11:24:11;;;;;;;73.15;38.08;;;0.70;92.00;;;;;;5089077;28;20361;-71
2021/01/15 11:26:38;;;;;;;83.90;39.75;;;0.70;91.70;;;;;;5079423;28;20214;-71
2021/01/15 11:29:07;;;;;;;58.17;34.22;;;1.70;91.90;;;;;;5080904;28;20226;-72
2021/01/15 11:31:35;;;;;;;40.05;23.17;;;2.00;92.50;;;;;;5081916;28;20207;-70
2021/01/15 11:34:03;;;;;;;39.10;24.00;;;0.70;91.80;;;;;;5081334;28;20231;-71
2021/01/15 11:36:32;;;;;;;33.03;22.23;;;0.70;92.10;;;;;;5081558;28;20271;-73
2021/01/15 11:39:08;;;;;;;40.80;23.05;;;0.80;91.40;;;;;;5073939;28;20237;-71
2021/01/15 11:41:35;;;;;;;37.35;22.25;;;0.50;91.50;;;;;;5080133;28;20527;-71
2021/01/15 11:44:06;;;;;;;35.95;23.00;;;0.50;91.30;;;;;;5074134;28;20278;-70
2021/01/15 11:46:33;;;;;;;31.73;19.13;;;0.60;91.70;;;;;;5080820;28;20207;-72
2021/01/15 11:49:00;;;;;;;26.40;15.77;;;0.60;91.40;;;;;;5080740;28;20211;-72
2021/01/15 11:51:28;;;;;;;43.08;22.52;;;0.60;91.20;;;;;;5081443;28;20206;-71
2021/01/15 11:53:55;;;;;;;28.92;17.13;;;0.50;91.10;;;;;;5080520;28;20591;-71
2021/01/15 11:56:22;;;;;;;30.10;18.50;;;0.30;91.50;;;;;;5081654;28;20229;-70
2021/01/15 11:58:48;;;;;;;27.80;15.57;;;0.30;91.40;;;;;;5080873;28;20206;-70
2021/01/15 12:01:16;;;;;;;23.60;13.35;;;0.40;91.40;;;;;;5075813;28;20210;-71
2021/01/15 12:03:44;;;;;;;41.92;24.58;;;0.40;91.10;;;;;;5082551;28;20270;-71
2021/01/15 12:06:13;;;;;;;25.92;16.38;;;0.50;91.40;;;;;;5080424;28;20412;-72
2021/01/15 12:08:40;;;;;;;23.50;17.33;;;0.60;91.10;;;;;;5075755;28;20405;-71
2021/01/15 12:11:07;;;;;;;28.17;17.20;;;0.60;91.20;;;;;;5079062;28;20207;-72
2021/01/15 12:13:35;;;;;;;31.73;18.23;;;0.50;91.20;;;;;;5075648;28;20211;-72
2021/01/15 12:16:02;;;;;;;28.17;19.67;;;0.60;90.90;;;;;;5079727;28;20203;-71
2021/01/15 12:18:29;;;;;;;32.30;20.48;;;0.60;90.90;;;;;;5080521;28;20310;-72
2021/01/15 12:20:59;;;;;;;28.45;18.08;;;0.70;91.10;;;;;;5080997;28;20234;-72
2021/01/15 12:23:26;;;;;;;34.97;20.80;;;0.90;90.90;;;;;;5088028;28;20238;-70
2021/01/15 12:25:53;;;;;;;61.75;32.92;;;1.20;90.40;;;;;;5082136;28;20226;-70
2021/01/15 12:28:20;;;;;;;36.40;21.40;;;1.50;89.90;;;;;;5083219;28;20301;-73
2021/01/15 12:30:51;;;;;;;31.90;20.40;;;1.70;88.80;;;;;;5076441;28;20207;-71
2021/01/15 12:33:20;;;;;;;31.20;19.58;;;1.80;87.80;;;;;;5080781;28;20254;-71
2021/01/15 12:35:48;;;;;;;53.92;32.63;;;1.50;88.10;;;;;;5079795;28;20280;-71
2021/01/15 12:38:17;;;;;;;42.40;25.98;;;1.60;88.40;;;;;;5080105;28;20207;-71
2021/01/15 12:40:46;;;;;;;41.88;24.20;;;1.70;89.10;;;;;;5080150;28;20500;-70
2021/01/15 12:43:14;;;;;;;62.42;37.88;;;1.90;88.60;;;;;;5060303;28;20241;-70
2021/01/15 12:45:44;;;;;;;45.25;24.17;;;2.20;87.90;;;;;;5073407;28;20217;-71
2021/01/15 12:48:12;;;;;;;42.15;23.23;;;2.50;86.40;;;;;;5074697;28;20569;-70
2021/01/15 12:50:41;;;;;;;38.30;19.90;;;2.50;85.90;;;;;;5072294;28;20207;-70
2021/01/15 12:53:08;;;;;;;37.50;21.15;;;2.80;85.30;;;;;;5079823;28;20494;-69